Time;durP1;ratioP1;P1;durP2;ratioP2;P2;SDS_P1;SDS_P2;PMS_P1;PMS_P2;Temp;Humidity;BMP_temperature;BMP_pressure;BME280_temperature;BME280_humidity;BME280_pressure;Samples;Min_cycle;Max_cycle;Signal;HPM_P1;HPM_P2
2022/07/18 00:02:17;;;;;;;6.15;3.38;;;;;;;18.22;66.13;102245.72;4716706;30;20033;-75
2022/07/18 00:04:43;;;;;;;4.63;3.45;;;;;;;18.19;66.05;102238.00;4702603;30;20033;-70
2022/07/18 00:07:10;;;;;;;9.40;3.97;;;;;;;18.09;66.04;102230.41;4718660;30;20032;-76
2022/07/18 00:09:36;;;;;;;7.40;3.38;;;;;;;18.03;66.25;102232.19;4718448;30;20056;-71
2022/07/18 00:12:03;;;;;;;5.68;3.42;;;;;;;18.00;65.94;102229.13;4718651;30;20055;-72
2022/07/18 00:14:28;;;;;;;6.82;3.75;;;;;;;17.98;66.40;102225.78;4717357;30;20067;-73
2022/07/18 00:16:54;;;;;;;8.32;3.53;;;;;;;17.92;65.39;102227.59;4717953;30;20080;-72
2022/07/18 00:19:19;;;;;;;7.10;3.60;;;;;;;17.87;66.05;102220.06;4718628;30;20033;-73
2022/07/18 00:21:44;;;;;;;5.00;3.50;;;;;;;17.92;67.04;102218.53;4718731;30;20029;-75
2022/07/18 00:24:10;;;;;;;7.07;3.72;;;;;;;17.80;66.27;102219.38;4717862;30;20131;-74
2022/07/18 00:26:36;;;;;;;7.72;3.13;;;;;;;17.85;67.42;102215.91;4717235;30;20044;-70
2022/07/18 00:29:01;;;;;;;6.28;3.47;;;;;;;17.79;67.12;102217.69;4718623;30;20113;-72
2022/07/18 00:31:26;;;;;;;7.40;3.70;;;;;;;17.78;67.17;102209.72;4710238;30;20044;-74
2022/07/18 00:33:51;;;;;;;6.20;3.38;;;;;;;17.74;68.13;102201.16;4714515;30;20041;-71
2022/07/18 00:36:17;;;;;;;7.30;3.58;;;;;;;17.70;67.79;102202.69;4718301;30;20033;-75
2022/07/18 00:38:42;;;;;;;11.23;3.30;;;;;;;17.72;67.02;102197.81;4702634;30;20106;-71
2022/07/18 00:41:07;;;;;;;7.45;3.67;;;;;;;17.69;67.45;102190.94;4718399;30;20033;-74
2022/07/18 00:43:33;;;;;;;5.95;3.50;;;;;;;17.60;67.24;102197.81;4717647;30;20047;-75
2022/07/18 00:45:58;;;;;;;9.40;3.70;;;;;;;17.66;67.31;102196.03;4718372;30;20363;-77
2022/07/18 00:48:23;;;;;;;10.43;3.75;;;;;;;17.66;65.97;102196.03;4717092;30;20033;-73
2022/07/18 00:50:49;;;;;;;9.05;3.90;;;;;;;17.64;66.97;102193.53;4718274;30;20109;-77
2022/07/18 00:53:15;;;;;;;9.40;3.92;;;;;;;17.70;63.87;102194.50;4718037;30;20040;-75
2022/07/18 00:55:43;;;;;;;8.32;4.10;;;;;;;17.67;65.01;102192.22;4715908;30;20095;-74
2022/07/18 00:58:10;;;;;;;11.45;4.13;;;;;;;17.59;65.64;102195.31;4718145;30;20029;-71
2022/07/18 01:03:19;;;;;;;5.43;3.50;;;;;;;17.54;66.16;102188.69;4717623;30;20115;-72
2022/07/18 01:05:45;;;;;;;9.18;4.68;;;;;;;17.52;67.37;102188.06;4718275;30;20450;-75
2022/07/18 01:08:10;;;;;;;6.72;4.38;;;;;;;17.52;64.93;102182.59;4717752;30;20044;-75
2022/07/18 01:10:36;;;;;;;5.93;4.20;;;;;;;17.53;63.84;102178.78;4702067;30;20033;-74
2022/07/18 01:13:01;;;;;;;8.13;4.20;;;;;;;17.57;65.62;102181.06;4716777;30;20029;-73
2022/07/18 01:15:26;;;;;;;6.50;4.18;;;;;;;17.55;66.20;102181.28;4717250;30;20107;-71
2022/07/18 01:17:52;;;;;;;8.77;4.85;;;;;;;17.48;65.37;102170.47;4701857;30;20060;-74
2022/07/18 01:20:17;;;;;;;10.13;4.53;;;;;;;17.40;65.43;102170.84;4716723;30;20040;-73
2022/07/18 01:22:42;;;;;;;9.23;4.25;;;;;;;17.40;66.32;102176.31;4702040;30;20500;-73
2022/07/18 01:25:09;;;;;;;7.90;4.43;;;;;;;17.33;65.79;102172.84;4716817;30;20112;-72
2022/07/18 01:27:35;;;;;;;7.03;4.45;;;;;;;17.30;65.87;102170.59;4701798;30;20147;-73
2022/07/18 01:30:01;;;;;;;10.48;4.47;;;;;;;17.27;66.67;102171.91;4701930;30;20592;-72
2022/07/18 01:32:27;;;;;;;10.18;4.55;;;;;;;17.23;65.43;102169.91;4717341;30;20073;-71
2022/07/18 01:34:52;;;;;;;10.07;4.75;;;;;;;17.17;67.25;102172.50;4716475;30;20029;-70
2022/07/18 01:37:18;;;;;;;5.88;4.40;;;;;;;17.23;66.37;102172.63;4717229;30;20087;-75
2022/07/18 01:39:44;;;;;;;6.97;4.32;;;;;;;17.20;66.86;102170.38;4717382;30;20041;-75
2022/07/18 01:42:11;;;;;;;7.38;4.55;;;;;;;17.17;64.54;102172.50;4701838;30;20036;-73
2022/07/18 01:44:37;;;;;;;10.23;4.53;;;;;;;17.21;66.15;102169.28;4716954;30;20858;-72
2022/07/18 01:47:04;;;;;;;7.75;4.45;;;;;;;17.12;65.46;102174.25;4717359;30;20037;-75
2022/07/18 01:49:29;;;;;;;6.72;4.82;;;;;;;17.14;65.83;102183.09;4717126;30;20036;-72
2022/07/18 01:51:56;;;;;;;6.18;4.55;;;;;;;17.02;64.30;102174.03;4717331;30;20390;-72
2022/07/18 01:54:27;;;;;;;8.38;4.72;;;;;;;17.08;64.80;102178.56;4715884;30;20032;-75
2022/07/18 01:56:53;;;;;;;7.90;4.53;;;;;;;17.06;65.52;102176.06;4717138;30;20048;-75
2022/07/18 01:59:18;;;;;;;8.60;4.50;;;;;;;17.04;66.26;102172.72;4717014;30;20104;-71
2022/07/18 02:01:45;;;;;;;6.82;4.28;;;;;;;17.01;66.93;102170.47;4714935;30;20039;-73
2022/07/18 02:04:11;;;;;;;8.35;4.20;;;;;;;16.93;65.71;102173.53;4717151;30;20116;-73
2022/07/18 02:06:36;;;;;;;7.80;4.60;;;;;;;16.90;66.49;102168.56;4701135;30;20521;-74
2022/07/18 02:09:02;;;;;;;9.73;4.28;;;;;;;16.88;66.82;102163.31;4717102;30;20467;-74
2022/07/18 02:11:27;;;;;;;7.28;4.50;;;;;;;16.82;66.19;102166.97;4716964;30;20040;-74
2022/07/18 02:13:53;;;;;;;9.98;4.40;;;;;;;16.84;66.34;102151.97;4716207;30;20102;-72
2022/07/18 02:16:18;;;;;;;5.78;4.35;;;;;;;16.85;65.36;102152.81;4716830;30;20033;-71
2022/07/18 02:18:43;;;;;;;9.10;4.95;;;;;;;16.84;66.23;102151.97;4716784;30;20036;-71
2022/07/18 02:21:09;;;;;;;7.05;4.53;;;;;;;16.81;66.64;102152.44;4716738;30;20047;-76
2022/07/18 02:23:35;;;;;;;7.60;4.63;;;;;;;16.80;64.46;102144.47;4716507;30;20033;-76
2022/07/18 02:26:01;;;;;;;7.90;4.60;;;;;;;16.84;65.13;102141.03;4717186;30;20037;-72
2022/07/18 02:28:26;;;;;;;10.63;4.95;;;;;;;16.86;65.19;102142.72;4716387;30;20029;-71
2022/07/18 02:30:52;;;;;;;7.03;4.55;;;;;;;16.92;63.97;102144.53;4717713;30;20037;-75
2022/07/18 02:33:17;;;;;;;7.82;4.65;;;;;;;16.86;64.38;102142.72;4722366;30;20063;-71
2022/07/18 02:35:42;;;;;;;8.57;4.70;;;;;;;16.90;64.20;102143.94;4721466;30;20040;-75
2022/07/18 02:38:08;;;;;;;9.02;4.65;;;;;;;16.82;64.22;102148.66;4722421;30;20037;-72
2022/07/18 02:40:33;;;;;;;9.07;5.20;;;;;;;16.74;64.00;102149.00;4722369;30;20033;-71
2022/07/18 02:42:59;;;;;;;8.45;5.10;;;;;;;16.79;65.13;102142.84;4722293;30;20367;-72
2022/07/18 02:45:24;;;;;;;8.38;4.97;;;;;;;16.83;64.35;102133.94;4706605;30;20029;-72
2022/07/18 02:47:50;;;;;;;12.60;5.82;;;;;;;16.79;65.11;102140.91;4722523;30;20037;-72
2022/07/18 02:50:16;;;;;;;11.05;5.10;;;;;;;16.85;63.42;102136.41;4722548;30;20033;-73
2022/07/18 02:52:41;;;;;;;7.63;4.90;;;;;;;16.82;64.71;102128.69;4722346;30;20033;-71
2022/07/18 02:55:08;;;;;;;8.48;4.95;;;;;;;16.76;64.55;102135.94;4720410;30;20037;-71
2022/07/18 02:57:34;;;;;;;9.18;5.07;;;;;;;16.69;65.13;102135.19;4722164;30;20090;-72
2022/07/18 02:59:59;;;;;;;12.40;5.18;;;;;;;16.61;65.02;102141.00;4722137;30;20470;-71
2022/07/18 03:02:25;;;;;;;13.20;5.80;;;;;;;16.47;65.94;102137.63;4719988;30;20095;-74
2022/07/18 03:04:50;;;;;;;9.25;4.78;;;;;;;16.54;65.90;102143.00;4722153;30;20048;-73
2022/07/18 03:07:16;;;;;;;9.65;4.70;;;;;;;16.53;66.00;102138.59;4722077;30;20526;-73
2022/07/18 03:09:41;;;;;;;8.38;5.35;;;;;;;16.47;66.91;102129.44;4722444;30;20040;-71
2022/07/18 03:12:06;;;;;;;10.60;4.95;;;;;;;16.48;65.88;102126.47;4722284;30;20040;-74
2022/07/18 03:14:32;;;;;;;7.85;4.65;;;;;;;16.44;67.02;102129.91;4721214;30;20037;-72
2022/07/18 03:16:57;;;;;;;8.70;4.47;;;;;;;16.44;67.22;102118.97;4721305;30;20049;-72
2022/07/18 03:19:23;;;;;;;17.95;5.65;;;;;;;16.44;66.29;102114.34;4722123;30;20025;-72
2022/07/18 03:21:48;;;;;;;7.18;4.47;;;;;;;16.50;67.09;102106.28;4722040;30;20043;-73
2022/07/18 03:24:14;;;;;;;14.30;4.90;;;;;;;16.54;66.11;102104.75;4706564;30;20033;-73
2022/07/18 03:26:40;;;;;;;8.48;4.57;;;;;;;16.45;66.36;102099.59;4721996;30;20029;-75
2022/07/18 03:29:05;;;;;;;9.75;4.78;;;;;;;16.50;66.46;102100.81;4722192;30;20068;-73
2022/07/18 03:31:30;;;;;;;7.15;4.68;;;;;;;16.53;66.01;102105.81;4722261;30;20458;-74
2022/07/18 03:33:56;;;;;;;10.05;4.72;;;;;;;16.46;66.76;102103.19;4721942;30;20029;-73
2022/07/18 03:36:21;;;;;;;9.00;4.35;;;;;;;16.50;66.59;102106.28;4721356;30;20041;-73
2022/07/18 03:38:46;;;;;;;6.63;4.43;;;;;;;16.46;66.02;102100.47;4721522;30;20174;-72
2022/07/18 03:41:12;;;;;;;9.25;4.75;;;;;;;16.45;66.00;102096.88;4722082;30;20449;-73
2022/07/18 03:43:39;;;;;;;7.55;4.60;;;;;;;16.35;66.05;102096.63;4703119;30;20464;-73
2022/07/18 03:46:04;;;;;;;9.25;4.50;;;;;;;16.39;65.84;102100.53;4719331;30;20037;-71
2022/07/18 03:48:29;;;;;;;8.20;4.55;;;;;;;16.33;65.59;102096.03;4719085;30;20347;-71
2022/07/18 03:50:55;;;;;;;9.75;4.55;;;;;;;16.35;66.16;102096.63;4719271;30;20044;-74
2022/07/18 03:53:20;;;;;;;8.57;4.70;;;;;;;16.31;66.22;102109.09;4718145;30;20033;-74
2022/07/18 03:55:46;;;;;;;7.05;4.40;;;;;;;16.37;65.94;102105.41;4718933;30;20033;-74
2022/07/18 03:58:11;;;;;;;8.05;4.47;;;;;;;16.39;66.19;102106.00;4719049;30;20033;-69
2022/07/18 04:00:36;;;;;;;10.20;4.47;;;;;;;16.36;66.99;102095.56;4716654;30;20474;-73
2022/07/18 04:03:02;;;;;;;10.10;4.70;;;;;;;16.43;65.98;102090.00;4719116;30;20475;-73
2022/07/18 04:05:27;;;;;;;14.00;4.75;;;;;;;16.41;67.00;102095.69;4718584;30;20052;-70
2022/07/18 04:07:53;;;;;;;8.73;4.55;;;;;;;16.43;65.21;102096.28;4719268;30;20037;-74
2022/07/18 04:10:18;;;;;;;10.48;4.32;;;;;;;16.44;66.20;102097.97;4718930;30;20061;-73
2022/07/18 04:12:48;;;;;;;11.65;4.50;;;;;;;16.42;64.38;102100.06;4717898;30;20070;-70
2022/07/18 04:15:14;;;;;;;10.13;4.70;;;;;;;16.41;64.62;102090.25;4703221;30;20033;-74
2022/07/18 04:17:39;;;;;;;7.15;4.72;;;;;;;16.44;65.25;102086.19;4718601;30;20107;-74
2022/07/18 04:20:05;;;;;;;10.85;5.13;;;;;;;16.41;65.74;102087.50;4718877;30;20028;-73
2022/07/18 04:22:30;;;;;;;13.50;4.63;;;;;;;16.46;65.57;102084.06;4702863;30;20036;-70
2022/07/18 04:24:56;;;;;;;11.73;4.60;;;;;;;16.43;65.13;102079.06;4718468;30;20037;-73
2022/07/18 04:27:21;;;;;;;13.88;5.53;;;;;;;16.37;65.52;102080.84;4718435;30;20040;-71
2022/07/18 04:29:46;;;;;;;13.02;5.20;;;;;;;16.37;65.51;102075.38;4718448;30;20112;-72
2022/07/18 04:32:11;;;;;;;14.20;5.03;;;;;;;16.35;64.57;102072.06;4718375;30;20063;-70
2022/07/18 04:34:37;;;;;;;13.05;5.13;;;;;;;16.35;65.95;102074.78;4717421;30;20061;-71
2022/07/18 04:37:02;;;;;;;15.07;5.13;;;;;;;16.33;64.42;102071.44;4717238;30;20482;-73
2022/07/18 04:39:27;;;;;;;9.57;4.80;;;;;;;16.39;66.22;102067.75;4718244;30;20046;-73
2022/07/18 04:41:52;;;;;;;10.50;4.50;;;;;;;16.40;66.06;102063.16;4718210;30;20037;-70
2022/07/18 04:44:18;;;;;;;6.55;4.38;;;;;;;16.48;65.74;102069.09;4718130;30;20044;-74
2022/07/18 04:46:43;;;;;;;12.30;5.43;;;;;;;16.50;65.80;102078.97;4718436;30;20045;-74
2022/07/18 04:49:08;;;;;;;9.70;5.20;;;;;;;16.55;66.70;102066.25;4718422;30;20062;-71
2022/07/18 04:51:34;;;;;;;8.48;4.88;;;;;;;16.63;65.25;102073.28;4718123;30;20033;-73
2022/07/18 04:53:59;;;;;;;10.55;4.93;;;;;;;16.64;66.56;102064.84;4716941;30;20163;-69
2022/07/18 04:56:24;;;;;;;12.63;5.45;;;;;;;16.70;66.58;102078.63;4717943;30;20479;-74
2022/07/18 04:58:49;;;;;;;12.02;5.10;;;;;;;16.73;67.13;102076.25;4717843;30;20123;-71
2022/07/18 05:01:15;;;;;;;10.10;4.88;;;;;;;16.82;65.31;102074.84;4715878;30;20119;-73
2022/07/18 05:03:40;;;;;;;8.50;4.90;;;;;;;16.87;65.42;102067.88;4717880;30;20053;-73
2022/07/18 05:06:06;;;;;;;9.80;4.70;;;;;;;16.93;65.85;102066.91;4717985;30;20170;-74
2022/07/18 05:08:31;;;;;;;9.48;4.88;;;;;;;16.94;65.56;102066.69;4717819;30;20037;-71
2022/07/18 05:10:56;;;;;;;6.75;4.82;;;;;;;17.03;65.46;102072.63;4717714;30;20037;-72
2022/07/18 05:13:22;;;;;;;10.75;4.78;;;;;;;17.05;64.90;102073.22;4717681;30;20033;-72
2022/07/18 05:15:47;;;;;;;10.10;4.63;;;;;;;17.15;66.51;102069.84;4716820;30;20506;-72
2022/07/18 05:18:12;;;;;;;15.70;5.10;;;;;;;17.15;64.90;102070.72;4717906;30;20057;-71
2022/07/18 05:20:38;;;;;;;8.75;4.80;;;;;;;17.23;63.72;102074.97;4717538;30;20060;-70
2022/07/18 05:23:03;;;;;;;12.63;5.38;;;;;;;17.25;63.37;102082.94;4702132;30;20039;-73
2022/07/18 05:25:28;;;;;;;8.82;4.72;;;;;;;17.32;63.64;102086.38;4717708;30;20087;-73
2022/07/18 05:27:54;;;;;;;12.50;4.70;;;;;;;17.37;63.70;102078.28;4717706;30;20098;-72
2022/07/18 05:30:20;;;;;;;12.57;4.63;;;;;;;17.41;63.31;102078.63;4717708;30;20037;-73
2022/07/18 05:32:47;;;;;;;10.45;5.03;;;;;;;17.45;63.51;102077.94;4717476;30;20029;-72
2022/07/18 05:35:13;;;;;;;11.55;5.10;;;;;;;17.51;62.63;102076.97;4701127;30;20041;-73
2022/07/18 05:37:39;;;;;;;10.95;4.43;;;;;;;17.57;62.34;102077.06;4717151;30;20036;-69
2022/07/18 05:40:06;;;;;;;9.98;5.20;;;;;;;17.65;63.76;102079.44;4717512;30;20032;-73
2022/07/18 05:42:32;;;;;;;14.23;4.68;;;;;;;17.74;64.15;102085.31;4716995;30;20107;-71
2022/07/18 05:44:57;;;;;;;13.10;4.60;;;;;;;17.81;62.57;102078.63;4716801;30;20043;-73
2022/07/18 05:47:23;;;;;;;14.65;4.72;;;;;;;17.89;60.93;102075.56;4717366;30;20355;-72
2022/07/18 05:49:48;;;;;;;9.43;5.00;;;;;;;18.00;61.08;102081.22;4717106;30;20040;-72
2022/07/18 05:52:13;;;;;;;13.05;4.90;;;;;;;18.01;61.46;102078.25;4717276;30;20040;-71
2022/07/18 05:54:38;;;;;;;14.82;4.60;;;;;;;18.10;60.54;102075.94;4716173;30;20098;-72
2022/07/18 05:57:04;;;;;;;14.48;5.20;;;;;;;18.16;60.51;102077.69;4701466;30;20116;-74
2022/07/18 05:59:29;;;;;;;14.18;4.70;;;;;;;18.27;60.22;102072.38;4717228;30;20033;-73
2022/07/18 06:01:56;;;;;;;17.15;5.20;;;;;;;18.35;59.93;102067.31;4714384;30;20567;-70
2022/07/18 06:04:21;;;;;;;19.30;5.28;;;;;;;18.40;59.41;102077.53;4716882;30;20113;-72
2022/07/18 06:06:48;;;;;;;15.30;4.95;;;;;;;18.51;58.49;102078.53;4716482;30;20032;-74
2022/07/18 06:09:13;;;;;;;22.45;5.03;;;;;;;18.59;56.96;102078.16;4701363;30;20041;-72
2022/07/18 06:11:39;;;;;;;14.95;4.55;;;;;;;18.65;57.65;102081.81;4716878;30;20025;-72
2022/07/18 06:14:04;;;;;;;12.27;4.57;;;;;;;18.75;56.35;102087.44;4701333;30;20429;-70
2022/07/18 06:16:30;;;;;;;11.13;4.57;;;;;;;18.84;55.82;102087.84;4715691;30;20036;-71
2022/07/18 06:18:56;;;;;;;14.43;4.90;;;;;;;18.95;55.88;102085.06;4716707;30;20045;-71
2022/07/18 06:21:22;;;;;;;15.48;5.22;;;;;;;19.04;56.56;102073.66;4716741;30;20037;-71
2022/07/18 06:23:47;;;;;;;15.63;5.18;;;;;;;19.13;55.37;102063.91;4716729;30;20505;-71
2022/07/18 06:26:12;;;;;;;12.25;4.90;;;;;;;19.15;54.79;102056.25;4716914;30;20115;-70
2022/07/18 06:28:38;;;;;;;19.05;4.80;;;;;;;19.21;54.14;102060.72;4716680;30;20040;-70
2022/07/18 06:31:03;;;;;;;13.60;4.50;;;;;;;19.29;54.52;102071.28;4716877;30;20033;-70
2022/07/18 06:33:28;;;;;;;13.20;4.90;;;;;;;19.32;54.04;102058.13;4716031;30;20025;-71
2022/07/18 06:35:54;;;;;;;13.02;4.60;;;;;;;19.38;54.10;102054.34;4716441;30;20305;-72
2022/07/18 06:38:19;;;;;;;18.05;4.97;;;;;;;19.44;53.65;102054.16;4716634;30;20044;-71
2022/07/18 06:40:44;;;;;;;14.77;4.65;;;;;;;19.50;53.52;102055.03;4716344;30;20378;-71
2022/07/18 06:43:10;;;;;;;10.23;4.53;;;;;;;19.65;54.35;102055.22;4716797;30;20033;-71
2022/07/18 06:45:35;;;;;;;16.67;5.35;;;;;;;19.68;52.90;102056.63;4700969;30;20370;-72
2022/07/18 06:48:01;;;;;;;12.65;4.95;;;;;;;19.77;53.00;102048.78;4716800;30;20433;-72
2022/07/18 06:50:26;;;;;;;18.30;5.10;;;;;;;19.85;53.08;102045.59;4716497;30;20048;-72
2022/07/18 06:52:52;;;;;;;12.95;4.53;;;;;;;19.94;52.28;102054.19;4715850;30;20056;-71
2022/07/18 06:55:18;;;;;;;14.93;4.85;;;;;;;19.98;52.53;102044.34;4716684;30;20033;-72
2022/07/18 06:57:44;;;;;;;12.20;4.68;;;;;;;20.09;51.36;102042.53;4716375;30;20041;-71
2022/07/18 07:00:13;;;;;;;13.73;4.35;;;;;;;20.11;51.72;102046.69;4716931;30;20100;-72
2022/07/18 07:02:46;;;;;;;12.95;4.10;;;;;;;20.18;51.60;102046.47;4714211;30;20040;-71
2022/07/18 07:05:14;;;;;;;11.85;3.95;;;;;;;20.30;51.96;102047.13;4716652;30;20049;-71
2022/07/18 07:07:40;;;;;;;9.25;3.90;;;;;;;20.38;52.65;102042.22;4716402;30;20524;-71
2022/07/18 07:10:05;;;;;;;12.23;3.55;;;;;;;20.44;49.77;102041.19;4716285;30;20108;-72
2022/07/18 07:12:50;;;;;;;11.10;3.33;;;;;;;20.50;50.74;102045.63;4716621;30;20125;-71
2022/07/18 07:15:22;;;;;;;13.07;3.53;;;;;;;20.68;50.37;102047.16;4699564;30;20037;-72
2022/07/18 07:17:54;;;;;;;7.20;3.40;;;;;;;20.74;49.48;102053.53;4700532;30;20052;-72
2022/07/18 07:20:23;;;;;;;10.18;3.20;;;;;;;20.89;48.87;102053.63;4703907;30;20036;-77
2022/07/18 07:22:50;;;;;;;12.45;3.05;;;;;;;20.96;48.48;102051.50;4703863;30;20498;-75
2022/07/18 07:25:18;;;;;;;12.70;2.95;;;;;;;21.02;49.47;102055.94;4704124;30;20025;-75
2022/07/18 07:27:44;;;;;;;8.40;2.88;;;;;;;21.11;48.49;102050.75;4703529;30;20529;-76
2022/07/18 07:30:11;;;;;;;6.68;2.85;;;;;;;21.16;48.23;102052.69;4718154;30;20177;-76
2022/07/18 07:32:37;;;;;;;8.13;2.72;;;;;;;21.20;49.33;102049.16;4703976;30;20025;-75
2022/07/18 07:35:06;;;;;;;8.13;2.83;;;;;;;21.28;49.56;102052.50;4719393;30;20072;-73
2022/07/18 07:37:34;;;;;;;8.93;2.95;;;;;;;21.30;47.89;102051.09;4695067;30;20036;-74
2022/07/18 07:39:59;;;;;;;10.82;2.60;;;;;;;21.36;47.52;102047.31;4719024;30;20068;-74
2022/07/18 07:42:33;;;;;;;5.75;2.53;;;;;;;21.56;47.17;102062.28;4719151;30;20070;-80
2022/07/18 07:44:59;;;;;;;6.55;2.22;;;;;;;21.53;46.52;102052.63;4703263;30;20045;-77
2022/07/18 07:47:24;;;;;;;13.00;2.70;;;;;;;21.60;45.59;102052.34;4719333;30;20116;-77
2022/07/18 07:49:49;;;;;;;11.63;2.60;;;;;;;21.72;46.91;102050.19;4701897;30;20065;-76
2022/07/18 07:52:24;;;;;;;8.02;2.47;;;;;;;21.78;46.37;102040.00;4703578;30;20041;-77
2022/07/18 07:54:50;;;;;;;9.48;2.35;;;;;;;21.88;46.07;102036.47;4719314;30;20045;-78
2022/07/18 07:57:16;;;;;;;11.43;2.45;;;;;;;21.91;45.10;102024.91;4717996;30;20037;-76
2022/07/18 07:59:53;;;;;;;8.48;2.28;;;;;;;22.00;43.09;102028.78;4717812;30;20033;-80
2022/07/18 08:02:28;;;;;;;6.20;2.15;;;;;;;22.04;43.73;102029.03;4700786;30;20449;-79
2022/07/18 08:04:54;;;;;;;35.58;3.72;;;;;;;22.20;44.18;102027.13;4698971;30;20379;-74
2022/07/18 08:07:20;;;;;;;6.22;1.88;;;;;;;22.25;42.66;102027.13;4715323;30;20091;-73
2022/07/18 08:09:46;;;;;;;9.43;2.05;;;;;;;22.32;42.04;102011.16;4718506;30;20025;-75
2022/07/18 08:12:11;;;;;;;9.40;2.10;;;;;;;22.36;43.94;102014.19;4703260;30;20378;-74
2022/07/18 08:14:39;;;;;;;9.45;2.17;;;;;;;22.54;44.75;102015.56;4716974;30;20029;-76
2022/07/18 08:17:05;;;;;;;4.57;1.90;;;;;;;22.59;43.14;102018.31;4717742;30;20049;-72
2022/07/18 08:19:30;;;;;;;8.35;1.98;;;;;;;22.71;42.98;102013.31;4718665;30;20384;-74
2022/07/18 08:21:56;;;;;;;10.07;2.13;;;;;;;22.69;44.06;102007.28;4719809;30;20072;-72
2022/07/18 08:24:21;;;;;;;6.55;1.70;;;;;;;22.82;43.04;102001.16;4718984;30;20394;-75
2022/07/18 08:26:46;;;;;;;8.75;2.20;;;;;;;22.91;42.91;101995.06;4702596;30;20048;-76
2022/07/18 08:29:12;;;;;;;9.75;2.15;;;;;;;22.94;41.61;102002.78;4718313;30;20037;-75
2022/07/18 08:31:37;;;;;;;5.95;2.10;;;;;;;22.97;42.44;102002.22;4702908;30;20112;-74
2022/07/18 08:34:02;;;;;;;9.77;2.25;;;;;;;23.02;42.19;102004.94;4716824;30;20040;-76
2022/07/18 08:36:28;;;;;;;2.47;1.50;;;;;;;23.14;43.65;102012.94;4718546;30;20029;-74
2022/07/18 08:38:53;;;;;;;14.15;2.45;;;;;;;23.16;42.75;102016.28;4702445;30;20048;-75
2022/07/18 08:41:20;;;;;;;8.37;2.10;;;;;;;23.21;42.91;102018.19;4702784;30;20037;-77
2022/07/18 08:43:46;;;;;;;8.43;2.17;;;;;;;23.16;42.44;102019.84;4717554;30;20305;-76
2022/07/18 08:46:12;;;;;;;7.38;2.17;;;;;;;23.20;43.17;102019.28;4718403;30;20111;-75
2022/07/18 08:48:39;;;;;;;5.88;2.08;;;;;;;23.26;43.73;102023.69;4718331;30;20044;-76
2022/07/18 08:51:05;;;;;;;9.52;2.25;;;;;;;23.25;42.34;102022.00;4718176;30;20037;-76
2022/07/18 08:53:32;;;;;;;13.07;2.03;;;;;;;23.27;43.09;102017.06;4716862;30;20047;-77
2022/07/18 08:55:57;;;;;;;9.35;2.30;;;;;;;23.38;43.77;102018.66;4714785;30;20517;-75
2022/07/18 08:58:23;;;;;;;8.00;2.10;;;;;;;23.37;43.18;102017.00;4716058;30;20124;-76
2022/07/18 09:00:48;;;;;;;4.10;1.90;;;;;;;23.51;44.58;102011.69;4702309;30;20706;-73
2022/07/18 09:03:13;;;;;;;8.18;2.20;;;;;;;23.57;42.38;102007.78;4717163;30;20051;-76
2022/07/18 09:05:41;;;;;;;6.97;2.13;;;;;;;23.63;42.23;102017.69;4718041;30;20033;-74
2022/07/18 09:08:27;;;;;;;8.45;1.88;;;;;;;23.62;43.59;102013.28;4718135;30;20589;-78
2022/07/18 09:10:55;;;;;;;9.80;2.58;;;;;;;23.73;43.35;102011.25;4716610;30;20098;-78
2022/07/18 09:13:33;;;;;;;7.40;2.42;;;;;;;23.80;43.26;102009.00;4718108;30;20044;-80
2022/07/18 09:19:05;;;;;;;9.23;2.07;;;;;;;24.01;42.78;102008.91;4706544;30;20045;-78
2022/07/18 09:21:36;;;;;;;11.30;2.53;;;;;;;24.00;42.46;102010.81;4702263;30;20307;-76
2022/07/18 09:24:01;;;;;;;9.27;2.05;;;;;;;24.15;43.68;102018.19;4717665;30;20494;-77
2022/07/18 09:26:35;;;;;;;11.48;2.22;;;;;;;24.21;42.75;102025.31;4717494;30;20069;-77
2022/07/18 09:29:01;;;;;;;10.85;2.50;;;;;;;24.29;42.54;102017.53;4716511;30;20040;-74
2022/07/18 09:31:26;;;;;;;9.35;2.15;;;;;;;24.30;42.39;102011.69;4684886;30;20378;-76
2022/07/18 09:33:53;;;;;;;10.57;2.50;;;;;;;24.35;41.85;102016.34;4700123;30;20042;-75
2022/07/18 09:36:19;;;;;;;4.93;1.80;;;;;;;24.44;41.70;102022.91;4699065;30;20419;-76
2022/07/18 09:38:44;;;;;;;6.40;2.20;;;;;;;24.56;42.17;102020.59;4708402;30;20159;-75
2022/07/18 09:41:11;;;;;;;9.40;2.38;;;;;;;24.62;42.25;102013.09;4716668;30;20058;-75
2022/07/18 09:43:38;;;;;;;7.72;2.13;;;;;;;24.74;40.40;102015.47;4717503;30;20035;-75
2022/07/18 09:46:05;;;;;;;9.48;1.88;;;;;;;24.84;40.71;102020.09;4717239;30;20049;-74
2022/07/18 09:48:30;;;;;;;5.10;1.95;;;;;;;24.93;40.94;102015.53;4716444;30;20111;-75
2022/07/18 09:51:04;;;;;;;5.70;2.15;;;;;;;24.97;41.42;102016.63;4715923;30;20124;-74
2022/07/18 09:53:41;;;;;;;6.80;2.08;;;;;;;25.03;41.95;102015.44;4701638;30;20458;-74
2022/07/18 09:56:09;;;;;;;6.13;1.83;;;;;;;24.99;41.58;102010.78;4701333;30;20808;-75
2022/07/18 09:58:50;;;;;;;11.25;2.20;;;;;;;25.17;41.46;102017.47;4717204;30;20068;-75
2022/07/18 10:01:17;;;;;;;7.50;2.15;;;;;;;25.17;40.80;102012.75;4713150;30;20037;-75
2022/07/18 10:03:43;;;;;;;5.35;1.80;;;;;;;25.17;40.87;102007.22;4717318;30;20033;-75
2022/07/18 10:06:08;;;;;;;7.35;2.33;;;;;;;25.40;40.40;102002.78;4717026;30;20037;-75
2022/07/18 10:08:35;;;;;;;7.28;2.00;;;;;;;25.47;40.46;102007.97;4717171;30;20037;-75
2022/07/18 10:11:03;;;;;;;6.15;2.20;;;;;;;25.58;40.80;102003.94;4715847;30;20060;-74
2022/07/18 10:13:30;;;;;;;6.68;1.95;;;;;;;25.63;40.89;102008.56;4717322;30;20374;-75
2022/07/18 10:15:56;;;;;;;5.57;1.98;;;;;;;25.70;40.52;102006.25;4695757;30;20032;-74
2022/07/18 10:18:27;;;;;;;3.95;2.05;;;;;;;25.92;39.52;102004.81;4714100;30;20049;-74
2022/07/18 10:20:57;;;;;;;4.68;2.30;;;;;;;25.92;41.27;102005.66;4717074;30;20108;-74
2022/07/18 10:23:51;;;;;;;7.38;2.10;;;;;;;26.06;40.48;102010.44;4716190;30;20045;-75
2022/07/18 10:26:24;;;;;;;7.28;1.95;;;;;;;26.02;40.66;101999.13;4716983;30;20383;-75
2022/07/18 10:28:55;;;;;;;10.68;2.50;;;;;;;25.96;39.67;102001.13;4699113;30;20428;-75
2022/07/18 10:31:32;;;;;;;22.48;2.67;;;;;;;26.26;40.02;102004.56;4699554;30;20038;-75
2022/07/18 10:34:06;;;;;;;6.93;2.20;;;;;;;26.38;40.62;102008.81;4715993;30;20116;-75
2022/07/18 10:36:52;;;;;;;16.02;2.20;;;;;;;26.55;40.51;101995.16;4716067;30;20065;-74
2022/07/18 10:39:23;;;;;;;6.90;2.30;;;;;;;26.52;39.91;101998.53;4715174;30;20037;-75
2022/07/18 10:41:53;;;;;;;10.93;2.20;;;;;;;26.75;40.41;101998.69;4716831;30;20029;-75
2022/07/18 10:44:25;;;;;;;11.02;2.25;;;;;;;26.53;37.69;101998.25;4716077;30;20041;-75
2022/07/18 10:47:17;;;;;;;3.92;2.00;;;;;;;26.69;38.63;101996.03;4714740;30;20109;-75
2022/07/18 10:49:45;;;;;;;11.05;2.30;;;;;;;26.76;37.97;102000.34;4716752;30;20032;-75
2022/07/18 10:52:26;;;;;;;7.47;1.80;;;;;;;26.77;37.18;101988.09;4701465;30;20132;-75
2022/07/18 10:57:30;;;;;;;9.00;2.10;;;;;;;26.94;36.87;101990.28;4720146;30;20489;-75
2022/07/18 11:00:10;;;;;;;7.20;1.95;;;;;;;26.98;35.44;101986.56;4719698;30;20432;-75
2022/07/18 11:02:36;;;;;;;6.00;1.70;;;;;;;27.04;34.48;101992.84;4702084;30;20029;-75
2022/07/18 11:05:22;;;;;;;9.80;2.00;;;;;;;27.12;33.98;101985.75;4718600;30;20037;-74
2022/07/18 11:08:07;;;;;;;6.55;1.88;;;;;;;27.19;35.54;101986.13;4719520;30;20037;-75
2022/07/18 11:10:46;;;;;;;4.60;1.80;;;;;;;27.30;32.87;101987.56;4704093;30;20045;-75
2022/07/18 11:13:27;;;;;;;6.55;1.98;;;;;;;27.43;33.10;101985.91;4718544;30;20033;-75
2022/07/18 11:16:06;;;;;;;3.40;1.58;;;;;;;27.52;32.88;101980.44;4719410;30;20060;-75
2022/07/18 11:18:53;;;;;;;5.43;1.98;;;;;;;27.77;32.07;101979.81;4703624;30;20460;-75
2022/07/18 11:21:21;;;;;;;9.30;2.17;;;;;;;27.86;33.66;101981.88;4718745;30;20052;-75
2022/07/18 11:23:49;;;;;;;12.35;2.00;;;;;;;27.93;33.07;101973.88;4719026;30;20037;-75
2022/07/18 11:26:16;;;;;;;5.82;1.70;;;;;;;28.02;33.56;101979.53;4719434;30;20107;-75
2022/07/18 11:28:42;;;;;;;3.70;1.83;;;;;;;28.05;34.04;101974.19;4719454;30;20075;-75
2022/07/18 11:31:12;;;;;;;4.97;2.30;;;;;;;28.03;34.41;101970.88;4703697;30;20053;-75